sensor_id;sensor_type;location;lat;lon;timestamp;temperature;humidity
34640;DHT22;22600;48.186;11.526;2022-07-23T00:02:05;26.30;60.80
34640;DHT22;22600;48.186;11.526;2022-07-23T00:04:32;26.30;60.80
34640;DHT22;22600;48.186;11.526;2022-07-23T00:06:58;26.30;60.70
34640;DHT22;22600;48.186;11.526;2022-07-23T00:09:23;26.30;60.70
34640;DHT22;22600;48.186;11.526;2022-07-23T00:11:49;26.30;60.70
34640;DHT22;22600;48.186;11.526;2022-07-23T00:14:14;26.30;60.70
34640;DHT22;22600;48.186;11.526;2022-07-23T00:16:40;26.30;60.70
34640;DHT22;22600;48.186;11.526;2022-07-23T00:19:05;26.30;60.70
34640;DHT22;22600;48.186;11.526;2022-07-23T00:21:31;26.30;60.70
34640;DHT22;22600;48.186;11.526;2022-07-23T00:23:57;26.30;60.70
34640;DHT22;22600;48.186;11.526;2022-07-23T00:26:22;28.40;62.30
34640;DHT22;22600;48.186;11.526;2022-07-23T00:28:48;26.30;60.70
34640;DHT22;22600;48.186;11.526;2022-07-23T00:31:13;26.30;60.70
34640;DHT22;22600;48.186;11.526;2022-07-23T00:33:39;26.30;60.60
34640;DHT22;22600;48.186;11.526;2022-07-23T00:36:04;26.30;60.60
34640;DHT22;22600;48.186;11.526;2022-07-23T00:38:30;26.30;60.60
34640;DHT22;22600;48.186;11.526;2022-07-23T00:40:56;26.30;60.60
34640;DHT22;22600;48.186;11.526;2022-07-23T00:43:21;26.30;60.70
34640;DHT22;22600;48.186;11.526;2022-07-23T00:45:47;26.30;60.60
34640;DHT22;22600;48.186;11.526;2022-07-23T00:48:13;26.30;60.60
34640;DHT22;22600;48.186;11.526;2022-07-23T00:50:38;26.30;60.60
34640;DHT22;22600;48.186;11.526;2022-07-23T00:53:05;26.30;60.70
34640;DHT22;22600;48.186;11.526;2022-07-23T00:55:30;26.30;60.60
34640;DHT22;22600;48.186;11.526;2022-07-23T00:57:57;26.30;60.70
34640;DHT22;22600;48.186;11.526;2022-07-23T01:00:22;26.30;60.60
34640;DHT22;22600;48.186;11.526;2022-07-23T01:02:49;26.30;60.60
34640;DHT22;22600;48.186;11.526;2022-07-23T01:05:15;26.30;60.60
34640;DHT22;22600;48.186;11.526;2022-07-23T01:07:40;26.30;60.60
34640;DHT22;22600;48.186;11.526;2022-07-23T01:10:07;26.30;60.60
34640;DHT22;22600;48.186;11.526;2022-07-23T01:12:52;26.30;60.60
34640;DHT22;22600;48.186;11.526;2022-07-23T01:15:18;26.30;60.60
34640;DHT22;22600;48.186;11.526;2022-07-23T01:17:44;26.30;60.60
34640;DHT22;22600;48.186;11.526;2022-07-23T01:20:09;26.20;60.50
34640;DHT22;22600;48.186;11.526;2022-07-23T01:22:35;26.30;60.50
34640;DHT22;22600;48.186;11.526;2022-07-23T01:25:01;26.30;60.50
34640;DHT22;22600;48.186;11.526;2022-07-23T01:27:26;26.30;60.60
34640;DHT22;22600;48.186;11.526;2022-07-23T01:29:54;26.30;60.50
34640;DHT22;22600;48.186;11.526;2022-07-23T01:32:20;26.30;60.50
34640;DHT22;22600;48.186;11.526;2022-07-23T01:34:45;26.30;60.60
34640;DHT22;22600;48.186;11.526;2022-07-23T01:37:11;26.30;60.50
34640;DHT22;22600;48.186;11.526;2022-07-23T01:39:36;26.30;60.50
34640;DHT22;22600;48.186;11.526;2022-07-23T01:42:02;26.30;60.50
34640;DHT22;22600;48.186;11.526;2022-07-23T01:44:27;26.30;60.50
34640;DHT22;22600;48.186;11.526;2022-07-23T01:46:53;26.30;60.50
34640;DHT22;22600;48.186;11.526;2022-07-23T01:49:19;26.30;60.40
34640;DHT22;22600;48.186;11.526;2022-07-23T01:51:44;26.30;60.50
34640;DHT22;22600;48.186;11.526;2022-07-23T01:54:29;26.30;60.60
34640;DHT22;22600;48.186;11.526;2022-07-23T01:56:56;26.30;60.60
34640;DHT22;22600;48.186;11.526;2022-07-23T01:59:21;26.30;60.60
34640;DHT22;22600;48.186;11.526;2022-07-23T02:01:47;26.30;60.60
34640;DHT22;22600;48.186;11.526;2022-07-23T02:04:14;26.30;60.50
34640;DHT22;22600;48.186;11.526;2022-07-23T02:06:39;26.30;60.60
34640;DHT22;22600;48.186;11.526;2022-07-23T02:09:05;26.30;60.50
34640;DHT22;22600;48.186;11.526;2022-07-23T02:11:30;26.30;60.60
34640;DHT22;22600;48.186;11.526;2022-07-23T02:13:56;26.30;60.60
34640;DHT22;22600;48.186;11.526;2022-07-23T02:16:21;26.30;60.60
34640;DHT22;22600;48.186;11.526;2022-07-23T02:18:47;26.30;60.60
34640;DHT22;22600;48.186;11.526;2022-07-23T02:21:12;26.30;60.50
34640;DHT22;22600;48.186;11.526;2022-07-23T02:23:38;26.30;60.50
34640;DHT22;22600;48.186;11.526;2022-07-23T02:26:04;26.30;60.60
34640;DHT22;22600;48.186;11.526;2022-07-23T02:28:29;26.30;60.60
34640;DHT22;22600;48.186;11.526;2022-07-23T02:30:55;26.30;60.60
34640;DHT22;22600;48.186;11.526;2022-07-23T02:33:21;26.30;60.60
34640;DHT22;22600;48.186;11.526;2022-07-23T02:35:46;26.30;60.60
34640;DHT22;22600;48.186;11.526;2022-07-23T02:38:12;26.30;60.60
34640;DHT22;22600;48.186;11.526;2022-07-23T02:40:37;26.40;60.60
34640;DHT22;22600;48.186;11.526;2022-07-23T02:43:03;26.30;60.60
34640;DHT22;22600;48.186;11.526;2022-07-23T02:45:29;26.30;60.60
34640;DHT22;22600;48.186;11.526;2022-07-23T02:47:54;26.30;60.60
34640;DHT22;22600;48.186;11.526;2022-07-23T02:50:20;26.30;60.60
34640;DHT22;22600;48.186;11.526;2022-07-23T02:52:45;26.30;60.60
34640;DHT22;22600;48.186;11.526;2022-07-23T02:55:11;26.20;61.30
34640;DHT22;22600;48.186;11.526;2022-07-23T02:57:37;26.30;60.50
34640;DHT22;22600;48.186;11.526;2022-07-23T03:00:04;26.30;60.50
34640;DHT22;22600;48.186;11.526;2022-07-23T03:02:30;27.20;61.30
34640;DHT22;22600;48.186;11.526;2022-07-23T03:04:55;26.30;60.60
34640;DHT22;22600;48.186;11.526;2022-07-23T03:07:21;26.30;60.60
34640;DHT22;22600;48.186;11.526;2022-07-23T03:09:46;26.30;60.60
34640;DHT22;22600;48.186;11.526;2022-07-23T03:12:12;26.30;60.50
34640;DHT22;22600;48.186;11.526;2022-07-23T03:14:38;26.30;60.40
34640;DHT22;22600;48.186;11.526;2022-07-23T03:17:03;26.30;60.50
34640;DHT22;22600;48.186;11.526;2022-07-23T03:19:29;26.30;60.50
34640;DHT22;22600;48.186;11.526;2022-07-23T03:21:55;26.30;60.60
34640;DHT22;22600;48.186;11.526;2022-07-23T03:24:20;26.30;60.60
34640;DHT22;22600;48.186;11.526;2022-07-23T03:26:46;26.30;60.60
34640;DHT22;22600;48.186;11.526;2022-07-23T03:29:11;26.30;60.60
34640;DHT22;22600;48.186;11.526;2022-07-23T03:31:37;26.30;60.60
34640;DHT22;22600;48.186;11.526;2022-07-23T03:34:03;26.30;60.60
34640;DHT22;22600;48.186;11.526;2022-07-23T03:36:28;26.30;60.60
34640;DHT22;22600;48.186;11.526;2022-07-23T03:38:54;26.30;60.60
34640;DHT22;22600;48.186;11.526;2022-07-23T03:41:20;26.30;60.60
34640;DHT22;22600;48.186;11.526;2022-07-23T03:43:46;26.30;60.60
34640;DHT22;22600;48.186;11.526;2022-07-23T03:46:12;26.30;60.60
34640;DHT22;22600;48.186;11.526;2022-07-23T03:48:37;26.30;60.60
34640;DHT22;22600;48.186;11.526;2022-07-23T03:51:03;26.30;60.60
34640;DHT22;22600;48.186;11.526;2022-07-23T03:53:29;26.30;60.50
34640;DHT22;22600;48.186;11.526;2022-07-23T03:55:55;26.30;60.60
34640;DHT22;22600;48.186;11.526;2022-07-23T03:58:20;26.30;60.60
34640;DHT22;22600;48.186;11.526;2022-07-23T04:00:46;26.30;60.60
34640;DHT22;22600;48.186;11.526;2022-07-23T04:03:12;26.30;60.70
34640;DHT22;22600;48.186;11.526;2022-07-23T04:05:37;26.30;60.60
34640;DHT22;22600;48.186;11.526;2022-07-23T04:08:03;26.30;60.60
34640;DHT22;22600;48.186;11.526;2022-07-23T04:10:29;26.30;60.70
34640;DHT22;22600;48.186;11.526;2022-07-23T04:12:54;26.30;60.70
34640;DHT22;22600;48.186;11.526;2022-07-23T04:15:20;26.30;60.70
34640;DHT22;22600;48.186;11.526;2022-07-23T04:17:45;26.30;60.70
34640;DHT22;22600;48.186;11.526;2022-07-23T04:20:12;26.20;61.30
34640;DHT22;22600;48.186;11.526;2022-07-23T04:22:38;26.30;60.70
34640;DHT22;22600;48.186;11.526;2022-07-23T04:25:04;26.30;60.70
34640;DHT22;22600;48.186;11.526;2022-07-23T04:27:29;26.30;60.70
34640;DHT22;22600;48.186;11.526;2022-07-23T04:29:55;26.30;60.70
34640;DHT22;22600;48.186;11.526;2022-07-23T04:32:21;26.30;60.70
34640;DHT22;22600;48.186;11.526;2022-07-23T04:34:46;26.30;60.70
34640;DHT22;22600;48.186;11.526;2022-07-23T04:37:12;25.60;60.10
34640;DHT22;22600;48.186;11.526;2022-07-23T04:39:37;26.30;60.70
34640;DHT22;22600;48.186;11.526;2022-07-23T04:42:03;26.20;60.60
34640;DHT22;22600;48.186;11.526;2022-07-23T04:44:29;26.30;60.70
34640;DHT22;22600;48.186;11.526;2022-07-23T04:46:54;26.30;60.70
34640;DHT22;22600;48.186;11.526;2022-07-23T04:49:20;26.30;60.70
34640;DHT22;22600;48.186;11.526;2022-07-23T04:51:45;26.30;60.70
34640;DHT22;22600;48.186;11.526;2022-07-23T04:54:11;26.20;60.60
34640;DHT22;22600;48.186;11.526;2022-07-23T04:56:36;26.30;60.70
34640;DHT22;22600;48.186;11.526;2022-07-23T04:59:02;26.30;60.70
34640;DHT22;22600;48.186;11.526;2022-07-23T05:01:27;26.30;60.70
34640;DHT22;22600;48.186;11.526;2022-07-23T05:03:53;26.30;60.70
34640;DHT22;22600;48.186;11.526;2022-07-23T05:06:19;26.30;60.70
34640;DHT22;22600;48.186;11.526;2022-07-23T05:08:44;26.30;60.70
34640;DHT22;22600;48.186;11.526;2022-07-23T05:11:10;26.30;60.80
34640;DHT22;22600;48.186;11.526;2022-07-23T05:13:35;26.30;60.70
34640;DHT22;22600;48.186;11.526;2022-07-23T05:16:01;26.30;60.80
34640;DHT22;22600;48.186;11.526;2022-07-23T05:18:26;26.30;60.70
34640;DHT22;22600;48.186;11.526;2022-07-23T05:20:52;26.20;60.70
34640;DHT22;22600;48.186;11.526;2022-07-23T05:23:17;26.30;60.80
34640;DHT22;22600;48.186;11.526;2022-07-23T05:25:43;26.30;60.80
34640;DHT22;22600;48.186;11.526;2022-07-23T05:28:09;26.30;60.80
34640;DHT22;22600;48.186;11.526;2022-07-23T05:30:34;26.20;60.70
34640;DHT22;22600;48.186;11.526;2022-07-23T05:33:00;26.20;60.70
34640;DHT22;22600;48.186;11.526;2022-07-23T05:35:25;26.20;60.70
34640;DHT22;22600;48.186;11.526;2022-07-23T05:37:51;26.20;60.70
34640;DHT22;22600;48.186;11.526;2022-07-23T05:40:18;26.20;60.80
34640;DHT22;22600;48.186;11.526;2022-07-23T05:42:43;26.20;60.80
34640;DHT22;22600;48.186;11.526;2022-07-23T05:45:10;26.20;60.80
34640;DHT22;22600;48.186;11.526;2022-07-23T05:47:46;26.20;60.70
34640;DHT22;22600;48.186;11.526;2022-07-23T05:50:13;26.30;60.80
34640;DHT22;22600;48.186;11.526;2022-07-23T05:52:39;26.20;60.70
34640;DHT22;22600;48.186;11.526;2022-07-23T05:55:06;26.30;60.90
34640;DHT22;22600;48.186;11.526;2022-07-23T05:57:32;26.20;60.80
34640;DHT22;22600;48.186;11.526;2022-07-23T05:59:57;26.20;60.80
34640;DHT22;22600;48.186;11.526;2022-07-23T06:02:23;26.30;60.90
34640;DHT22;22600;48.186;11.526;2022-07-23T06:04:48;26.20;60.80
34640;DHT22;22600;48.186;11.526;2022-07-23T06:07:14;26.20;60.80
34640;DHT22;22600;48.186;11.526;2022-07-23T06:09:39;26.20;60.80
34640;DHT22;22600;48.186;11.526;2022-07-23T06:12:05;26.20;60.80
34640;DHT22;22600;48.186;11.526;2022-07-23T06:14:31;26.20;60.80
34640;DHT22;22600;48.186;11.526;2022-07-23T06:16:56;26.20;60.80
34640;DHT22;22600;48.186;11.526;2022-07-23T06:19:22;26.20;60.80
34640;DHT22;22600;48.186;11.526;2022-07-23T06:21:48;26.20;60.80
34640;DHT22;22600;48.186;11.526;2022-07-23T06:24:13;26.20;60.80
34640;DHT22;22600;48.186;11.526;2022-07-23T06:26:39;26.20;60.80
34640;DHT22;22600;48.186;11.526;2022-07-23T06:29:05;26.20;60.80
34640;DHT22;22600;48.186;11.526;2022-07-23T06:31:30;26.30;60.90
34640;DHT22;22600;48.186;11.526;2022-07-23T06:33:56;26.20;60.80
34640;DHT22;22600;48.186;11.526;2022-07-23T06:36:21;26.20;60.80
34640;DHT22;22600;48.186;11.526;2022-07-23T06:38:47;26.20;60.80
34640;DHT22;22600;48.186;11.526;2022-07-23T06:41:12;26.20;60.90
34640;DHT22;22600;48.186;11.526;2022-07-23T06:43:38;26.10;60.80
34640;DHT22;22600;48.186;11.526;2022-07-23T06:46:04;26.20;60.90
34640;DHT22;22600;48.186;11.526;2022-07-23T06:48:29;26.20;60.90
34640;DHT22;22600;48.186;11.526;2022-07-23T06:50:55;26.20;60.90
34640;DHT22;22600;48.186;11.526;2022-07-23T06:53:20;26.20;60.90
34640;DHT22;22600;48.186;11.526;2022-07-23T06:55:46;26.20;60.90
34640;DHT22;22600;48.186;11.526;2022-07-23T06:58:12;26.20;61.00
34640;DHT22;22600;48.186;11.526;2022-07-23T07:00:39;26.20;60.90
34640;DHT22;22600;48.186;11.526;2022-07-23T07:03:05;26.20;60.90
34640;DHT22;22600;48.186;11.526;2022-07-23T07:05:31;26.20;60.90
34640;DHT22;22600;48.186;11.526;2022-07-23T07:07:56;26.20;61.00
34640;DHT22;22600;48.186;11.526;2022-07-23T07:10:22;26.20;60.90
34640;DHT22;22600;48.186;11.526;2022-07-23T07:12:48;27.80;62.20
34640;DHT22;22600;48.186;11.526;2022-07-23T07:15:13;26.20;61.00
34640;DHT22;22600;48.186;11.526;2022-07-23T07:17:39;26.20;61.00
34640;DHT22;22600;48.186;11.526;2022-07-23T07:20:05;26.20;61.00
34640;DHT22;22600;48.186;11.526;2022-07-23T07:22:31;26.20;61.00
34640;DHT22;22600;48.186;11.526;2022-07-23T07:24:57;26.20;61.00
34640;DHT22;22600;48.186;11.526;2022-07-23T07:27:23;26.20;61.00
34640;DHT22;22600;48.186;11.526;2022-07-23T07:29:48;26.20;61.00
34640;DHT22;22600;48.186;11.526;2022-07-23T07:32:14;26.20;61.00
34640;DHT22;22600;48.186;11.526;2022-07-23T07:34:39;26.20;61.00
34640;DHT22;22600;48.186;11.526;2022-07-23T07:37:05;26.20;61.00
34640;DHT22;22600;48.186;11.526;2022-07-23T07:39:30;26.20;61.00
34640;DHT22;22600;48.186;11.526;2022-07-23T07:41:56;26.20;61.00
34640;DHT22;22600;48.186;11.526;2022-07-23T07:44:21;26.20;61.00
34640;DHT22;22600;48.186;11.526;2022-07-23T07:46:47;26.20;61.00
34640;DHT22;22600;48.186;11.526;2022-07-23T07:49:13;26.20;61.00
34640;DHT22;22600;48.186;11.526;2022-07-23T07:51:38;26.20;61.10
34640;DHT22;22600;48.186;11.526;2022-07-23T07:54:04;26.20;61.10
34640;DHT22;22600;48.186;11.526;2022-07-23T07:56:29;26.20;61.00
34640;DHT22;22600;48.186;11.526;2022-07-23T07:58:55;26.20;61.10
34640;DHT22;22600;48.186;11.526;2022-07-23T08:01:21;26.20;61.90
34640;DHT22;22600;48.186;11.526;2022-07-23T08:03:47;26.20;61.10
34640;DHT22;22600;48.186;11.526;2022-07-23T08:06:12;26.20;61.10
34640;DHT22;22600;48.186;11.526;2022-07-23T08:08:38;26.20;61.10
34640;DHT22;22600;48.186;11.526;2022-07-23T08:11:04;26.20;61.10
34640;DHT22;22600;48.186;11.526;2022-07-23T08:13:29;26.20;61.10
34640;DHT22;22600;48.186;11.526;2022-07-23T08:15:55;26.20;61.10
34640;DHT22;22600;48.186;11.526;2022-07-23T08:18:20;26.20;61.10
34640;DHT22;22600;48.186;11.526;2022-07-23T08:20:46;26.20;61.10
34640;DHT22;22600;48.186;11.526;2022-07-23T08:23:12;26.20;61.10
34640;DHT22;22600;48.186;11.526;2022-07-23T08:25:40;26.20;61.10
34640;DHT22;22600;48.186;11.526;2022-07-23T08:28:08;26.20;61.10
34640;DHT22;22600;48.186;11.526;2022-07-23T08:30:36;26.10;61.10
34640;DHT22;22600;48.186;11.526;2022-07-23T08:33:07;26.10;61.00
34640;DHT22;22600;48.186;11.526;2022-07-23T08:35:35;26.10;61.10
34640;DHT22;22600;48.186;11.526;2022-07-23T08:38:03;26.10;61.10
34640;DHT22;22600;48.186;11.526;2022-07-23T08:40:32;26.10;61.10
34640;DHT22;22600;48.186;11.526;2022-07-23T08:42:59;26.10;61.10
34640;DHT22;22600;48.186;11.526;2022-07-23T08:45:27;26.20;61.20
34640;DHT22;22600;48.186;11.526;2022-07-23T08:47:55;26.10;61.10
34640;DHT22;22600;48.186;11.526;2022-07-23T08:50:23;26.10;61.10
34640;DHT22;22600;48.186;11.526;2022-07-23T08:52:50;26.10;61.10
34640;DHT22;22600;48.186;11.526;2022-07-23T08:55:17;26.10;61.10
34640;DHT22;22600;48.186;11.526;2022-07-23T08:57:43;26.10;61.00
34640;DHT22;22600;48.186;11.526;2022-07-23T09:00:10;26.10;61.10
34640;DHT22;22600;48.186;11.526;2022-07-23T09:02:40;26.10;61.10
34640;DHT22;22600;48.186;11.526;2022-07-23T09:05:07;26.20;61.20
34640;DHT22;22600;48.186;11.526;2022-07-23T09:07:32;26.10;61.00
34640;DHT22;22600;48.186;11.526;2022-07-23T09:10:06;26.10;61.10
34640;DHT22;22600;48.186;11.526;2022-07-23T09:12:32;26.20;61.20
34640;DHT22;22600;48.186;11.526;2022-07-23T09:15:04;26.20;61.20
34640;DHT22;22600;48.186;11.526;2022-07-23T09:17:40;26.20;61.20
34640;DHT22;22600;48.186;11.526;2022-07-23T09:22:35;26.20;61.10
34640;DHT22;22600;48.186;11.526;2022-07-23T09:25:08;26.20;61.10
34640;DHT22;22600;48.186;11.526;2022-07-23T09:30:15;26.20;61.20
34640;DHT22;22600;48.186;11.526;2022-07-23T09:32:41;26.20;61.20
34640;DHT22;22600;48.186;11.526;2022-07-23T09:35:07;26.20;61.20
34640;DHT22;22600;48.186;11.526;2022-07-23T09:37:33;26.10;61.10
34640;DHT22;22600;48.186;11.526;2022-07-23T09:40:09;26.20;61.20
34640;DHT22;22600;48.186;11.526;2022-07-23T09:42:38;26.10;61.10
34640;DHT22;22600;48.186;11.526;2022-07-23T09:45:10;28.50;63.00
34640;DHT22;22600;48.186;11.526;2022-07-23T09:47:37;26.10;61.10
34640;DHT22;22600;48.186;11.526;2022-07-23T09:50:05;26.20;61.10
34640;DHT22;22600;48.186;11.526;2022-07-23T09:52:36;26.10;61.00
34640;DHT22;22600;48.186;11.526;2022-07-23T09:55:05;26.20;61.10
34640;DHT22;22600;48.186;11.526;2022-07-23T09:57:32;26.20;61.10
34640;DHT22;22600;48.186;11.526;2022-07-23T10:00:00;26.20;61.10
34640;DHT22;22600;48.186;11.526;2022-07-23T10:02:28;26.20;61.10
34640;DHT22;22600;48.186;11.526;2022-07-23T10:04:57;26.20;61.00
34640;DHT22;22600;48.186;11.526;2022-07-23T10:07:24;26.20;61.00
34640;DHT22;22600;48.186;11.526;2022-07-23T10:09:52;26.20;60.90
34640;DHT22;22600;48.186;11.526;2022-07-23T10:12:19;26.20;60.90
34640;DHT22;22600;48.186;11.526;2022-07-23T10:15:04;26.20;60.90
34640;DHT22;22600;48.186;11.526;2022-07-23T10:17:31;26.20;61.00
34640;DHT22;22600;48.186;11.526;2022-07-23T10:19:57;26.20;60.90
34640;DHT22;22600;48.186;11.526;2022-07-23T10:22:25;26.30;61.00
34640;DHT22;22600;48.186;11.526;2022-07-23T10:31:05;26.20;60.90
34640;DHT22;22600;48.186;11.526;2022-07-23T10:33:56;23.40;59.20
34640;DHT22;22600;48.186;11.526;2022-07-23T10:41:37;26.20;60.90
34640;DHT22;22600;48.186;11.526;2022-07-23T10:44:18;26.20;60.90
34640;DHT22;22600;48.186;11.526;2022-07-23T10:46:59;26.20;60.90
34640;DHT22;22600;48.186;11.526;2022-07-23T10:49:33;26.20;60.90
34640;DHT22;22600;48.186;11.526;2022-07-23T10:54:49;26.20;60.90
34640;DHT22;22600;48.186;11.526;2022-07-23T10:57:17;26.20;60.90
34640;DHT22;22600;48.186;11.526;2022-07-23T11:02:33;26.10;60.90
34640;DHT22;22600;48.186;11.526;2022-07-23T11:05:10;26.20;60.90
34640;DHT22;22600;48.186;11.526;2022-07-23T11:08:09;26.20;60.90
34640;DHT22;22600;48.186;11.526;2022-07-23T11:10:37;26.10;60.90
34640;DHT22;22600;48.186;11.526;2022-07-23T11:18:57;26.20;61.00
34640;DHT22;22600;48.186;11.526;2022-07-23T11:24:06;26.20;61.00
34640;DHT22;22600;48.186;11.526;2022-07-23T11:31:58;26.20;61.00
34640;DHT22;22600;48.186;11.526;2022-07-23T11:34:40;26.20;61.00
34640;DHT22;22600;48.186;11.526;2022-07-23T11:37:11;26.20;61.00
34640;DHT22;22600;48.186;11.526;2022-07-23T11:39:38;26.20;61.00
34640;DHT22;22600;48.186;11.526;2022-07-23T11:42:06;26.20;61.00
34640;DHT22;22600;48.186;11.526;2022-07-23T11:44:32;26.20;61.10
34640;DHT22;22600;48.186;11.526;2022-07-23T11:49:25;26.20;61.10
34640;DHT22;22600;48.186;11.526;2022-07-23T11:52:08;26.20;61.10
34640;DHT22;22600;48.186;11.526;2022-07-23T11:54:37;26.20;61.10
34640;DHT22;22600;48.186;11.526;2022-07-23T11:57:11;26.20;61.10
34640;DHT22;22600;48.186;11.526;2022-07-23T11:59:39;26.20;61.10
34640;DHT22;22600;48.186;11.526;2022-07-23T12:02:05;26.20;61.10
34640;DHT22;22600;48.186;11.526;2022-07-23T12:04:43;26.20;61.10
34640;DHT22;22600;48.186;11.526;2022-07-23T12:07:34;26.20;61.10
34640;DHT22;22600;48.186;11.526;2022-07-23T12:10:21;26.20;61.20
34640;DHT22;22600;48.186;11.526;2022-07-23T12:12:55;26.20;61.10
34640;DHT22;22600;48.186;11.526;2022-07-23T12:15:30;26.20;61.10
34640;DHT22;22600;48.186;11.526;2022-07-23T12:17:57;26.10;61.10
34640;DHT22;22600;48.186;11.526;2022-07-23T12:20:31;26.20;61.20
34640;DHT22;22600;48.186;11.526;2022-07-23T12:23:00;26.20;61.10
34640;DHT22;22600;48.186;11.526;2022-07-23T12:25:29;26.20;61.20
34640;DHT22;22600;48.186;11.526;2022-07-23T12:33:21;26.20;61.70
34640;DHT22;22600;48.186;11.526;2022-07-23T12:35:47;26.20;61.20
34640;DHT22;22600;48.186;11.526;2022-07-23T12:38:19;26.20;61.20
34640;DHT22;22600;48.186;11.526;2022-07-23T12:40:47;26.20;61.20
34640;DHT22;22600;48.186;11.526;2022-07-23T12:43:19;26.20;61.30
34640;DHT22;22600;48.186;11.526;2022-07-23T12:45:54;26.20;61.30
34640;DHT22;22600;48.186;11.526;2022-07-23T12:48:31;26.20;61.30
34640;DHT22;22600;48.186;11.526;2022-07-23T12:50:57;26.10;61.20
34640;DHT22;22600;48.186;11.526;2022-07-23T12:56:03;26.20;61.30
34640;DHT22;22600;48.186;11.526;2022-07-23T12:58:44;26.20;61.30
34640;DHT22;22600;48.186;11.526;2022-07-23T13:04:06;26.20;61.30
34640;DHT22;22600;48.186;11.526;2022-07-23T13:06:37;26.20;61.30
34640;DHT22;22600;48.186;11.526;2022-07-23T13:09:05;26.20;61.40
34640;DHT22;22600;48.186;11.526;2022-07-23T13:11:31;26.10;61.30
34640;DHT22;22600;48.186;11.526;2022-07-23T13:13:58;26.10;61.30
34640;DHT22;22600;48.186;11.526;2022-07-23T13:16:26;26.20;61.40
34640;DHT22;22600;48.186;11.526;2022-07-23T13:18:52;26.20;61.40
34640;DHT22;22600;48.186;11.526;2022-07-23T13:21:17;26.10;61.30
34640;DHT22;22600;48.186;11.526;2022-07-23T13:23:43;26.10;61.30
34640;DHT22;22600;48.186;11.526;2022-07-23T13:26:08;26.20;61.40
34640;DHT22;22600;48.186;11.526;2022-07-23T13:28:34;26.10;61.30
34640;DHT22;22600;48.186;11.526;2022-07-23T13:31:00;26.10;61.40
34640;DHT22;22600;48.186;11.526;2022-07-23T13:33:26;26.10;61.30
34640;DHT22;22600;48.186;11.526;2022-07-23T13:35:52;26.10;61.40
34640;DHT22;22600;48.186;11.526;2022-07-23T13:38:19;26.10;61.40
34640;DHT22;22600;48.186;11.526;2022-07-23T13:40:47;26.20;61.40
34640;DHT22;22600;48.186;11.526;2022-07-23T13:43:16;26.10;61.40
34640;DHT22;22600;48.186;11.526;2022-07-23T13:45:42;26.20;61.40
34640;DHT22;22600;48.186;11.526;2022-07-23T13:48:08;26.10;61.40
34640;DHT22;22600;48.186;11.526;2022-07-23T13:50:35;26.20;61.40
34640;DHT22;22600;48.186;11.526;2022-07-23T13:53:06;26.10;61.40
34640;DHT22;22600;48.186;11.526;2022-07-23T13:55:31;26.20;61.40
34640;DHT22;22600;48.186;11.526;2022-07-23T13:57:57;26.20;61.40
34640;DHT22;22600;48.186;11.526;2022-07-23T14:00:24;26.10;61.40
34640;DHT22;22600;48.186;11.526;2022-07-23T14:02:50;26.10;61.40
34640;DHT22;22600;48.186;11.526;2022-07-23T14:05:15;26.10;61.40
34640;DHT22;22600;48.186;11.526;2022-07-23T14:07:41;26.10;61.40
34640;DHT22;22600;48.186;11.526;2022-07-23T14:10:08;26.10;61.40
34640;DHT22;22600;48.186;11.526;2022-07-23T14:12:34;23.70;59.90
34640;DHT22;22600;48.186;11.526;2022-07-23T14:15:00;26.10;61.40
34640;DHT22;22600;48.186;11.526;2022-07-23T14:17:25;26.10;61.40
34640;DHT22;22600;48.186;11.526;2022-07-23T14:19:51;26.10;61.40
34640;DHT22;22600;48.186;11.526;2022-07-23T14:22:17;26.10;61.40
34640;DHT22;22600;48.186;11.526;2022-07-23T14:24:42;26.10;61.40
34640;DHT22;22600;48.186;11.526;2022-07-23T14:27:08;26.10;61.40
34640;DHT22;22600;48.186;11.526;2022-07-23T14:29:34;26.10;60.80
34640;DHT22;22600;48.186;11.526;2022-07-23T14:32:00;26.10;61.40
34640;DHT22;22600;48.186;11.526;2022-07-23T14:34:26;26.10;61.40
34640;DHT22;22600;48.186;11.526;2022-07-23T14:36:52;26.20;62.30
34640;DHT22;22600;48.186;11.526;2022-07-23T14:39:18;26.10;61.40
34640;DHT22;22600;48.186;11.526;2022-07-23T14:41:44;26.10;61.40
34640;DHT22;22600;48.186;11.526;2022-07-23T14:44:10;26.10;61.50
34640;DHT22;22600;48.186;11.526;2022-07-23T14:46:36;26.10;61.50
34640;DHT22;22600;48.186;11.526;2022-07-23T14:49:02;26.10;61.50
34640;DHT22;22600;48.186;11.526;2022-07-23T14:51:27;26.20;61.50
34640;DHT22;22600;48.186;11.526;2022-07-23T14:53:53;26.20;61.50
34640;DHT22;22600;48.186;11.526;2022-07-23T14:56:19;26.10;61.50
34640;DHT22;22600;48.186;11.526;2022-07-23T14:58:44;26.10;61.90
34640;DHT22;22600;48.186;11.526;2022-07-23T15:01:10;26.10;62.00
34640;DHT22;22600;48.186;11.526;2022-07-23T15:03:35;28.40;64.10
34640;DHT22;22600;48.186;11.526;2022-07-23T15:06:01;26.10;62.40
34640;DHT22;22600;48.186;11.526;2022-07-23T15:08:26;26.10;62.60
34640;DHT22;22600;48.186;11.526;2022-07-23T15:10:52;26.20;62.80
34640;DHT22;22600;48.186;11.526;2022-07-23T15:13:18;26.20;62.80
34640;DHT22;22600;48.186;11.526;2022-07-23T15:15:44;26.20;62.80
34640;DHT22;22600;48.186;11.526;2022-07-23T15:18:10;26.10;62.80
34640;DHT22;22600;48.186;11.526;2022-07-23T15:20:36;26.20;62.90
34640;DHT22;22600;48.186;11.526;2022-07-23T15:23:04;26.30;63.10
34640;DHT22;22600;48.186;11.526;2022-07-23T15:25:29;26.30;63.10
34640;DHT22;22600;48.186;11.526;2022-07-23T15:27:57;26.30;63.20
34640;DHT22;22600;48.186;11.526;2022-07-23T15:30:24;26.20;63.20
34640;DHT22;22600;48.186;11.526;2022-07-23T15:32:50;26.40;63.50
34640;DHT22;22600;48.186;11.526;2022-07-23T15:35:16;26.40;63.50
34640;DHT22;22600;48.186;11.526;2022-07-23T15:37:41;26.40;63.60
34640;DHT22;22600;48.186;11.526;2022-07-23T15:40:08;26.40;63.70
34640;DHT22;22600;48.186;11.526;2022-07-23T15:42:34;26.40;63.70
34640;DHT22;22600;48.186;11.526;2022-07-23T15:44:59;26.50;63.80
34640;DHT22;22600;48.186;11.526;2022-07-23T15:47:25;26.50;63.90
34640;DHT22;22600;48.186;11.526;2022-07-23T15:49:51;26.60;63.90
34640;DHT22;22600;48.186;11.526;2022-07-23T15:52:16;26.50;63.90
34640;DHT22;22600;48.186;11.526;2022-07-23T15:54:42;26.60;63.90
34640;DHT22;22600;48.186;11.526;2022-07-23T15:57:08;26.60;64.00
34640;DHT22;22600;48.186;11.526;2022-07-23T15:59:34;26.60;63.80
34640;DHT22;22600;48.186;11.526;2022-07-23T16:02:00;26.60;63.70
34640;DHT22;22600;48.186;11.526;2022-07-23T16:04:26;26.50;63.70